Tiempo atmosférico en la estación meteorológica de Tejeda, Cruz de Tejeda, Las Palmas (1514 m.)



Fecha
DESCASC
Temp. máxima en grados centígrados (hora)
DESCASC
Temp. mínima en grados centígrados (hora)
DESCASC
Temp. media en grados centígrados
DESCASC
Racha de viento máxima en m/sg (hora)
DESCASC
Velocidad máxima media en intervalos de 10 minutos(hora)
DESCASC
Precipitaciones diarias en mm
DESCASC
Precipitaciones de 00:00 a 06:00 en mm
DESCASC
Precipitaciones de 06:00 a 12:00 en mm
DESCASC
Precipitaciones de 12:00 a 18:00 en mm
DESCASC
Precipitaciones de 18:00 a 24:00 en mm
DESCASC
29-10-2020 16.2 (17:10) 7.9 (03:30) 12.1 7.78 (00:10) 5.56 (23:59) 1 0.4 0.6 0 0
28-10-2020 10.8 (14:40) 7.8 (04:20) 9.3 9.44 (09:50) 4.44 (04:00) 2.8 0.8 1.2 0 0.8
27-10-2020 15.9 (14:40) 7.8 (00:00) 11.8 8.61 (10:00) 5 (20:20) 0 0 0 0 0
26-10-2020 20.1 (13:30) 8.9 (00:00) 14.5 5.28 (20:20) 4.17 (22:30) 0 0 0 0 0
25-10-2020 20.9 (12:30) 14.3 (00:00) 17.6 6.39 (22:00) 3.61 (13:10) 0 0 0 0 0
24-10-2020 17.4 (17:10) 6.6 (00:00) 12 7.78 (01:30) 5 (06:50) 0.2 0.2 0 0 0
23-10-2020 11.3 (15:20) 6.7 (00:00) 9 10 (20:20) 5.83 (20:20) 0.2 0.2 0 0 0
22-10-2020 15.8 (16:50) 7.9 (00:00) 11.9 6.39 (14:20) 3.33 (01:50) 2.6 1.6 1 0 0
21-10-2020 13.9 (15:00) 9.4 (00:00) 11.6 8.61 (00:20) 4.44 (03:40) 0 0 0 0 0
20-10-2020 17.7 (02:50) 12.7 (00:00) 15.2 25.83 (11:10) 10.28 (10:50) 1 0 0 1 0
19-10-2020 19.8 (14:50) 13.6 (00:00) 16.7 14.72 (13:10) 6.67 (01:50) 0 0 0 0 0
18-10-2020 19 (14:40) 9.6 (00:00) 14.3 9.17 (15:00) 6.11 (21:30) 0 0 0 0 0
17-10-2020 16.5 (13:40) 7.9 (00:00) 12.2 6.39 (14:00) 2.78 (08:20) 0 0 0 0 0
16-10-2020 20.9 (14:30) 9.9 (00:00) 15.4 4.72 (17:30) 1.67 (14:40) 0 0 0 0 0
15-10-2020 20.7 (12:30) 15.8 (00:00) 18.3 7.22 (08:00) 4.17 (08:00) 0 0 0 0 0
14-10-2020 25.7 (17:20) 17.8 (00:00) 21.8 5.56 (11:50) 3.61 (04:20) 0 0 0 0 0
13-10-2020 26 (14:40) 20.6 (00:00) 23.3 7.78 (08:50) 4.72 (08:10) 0 0 0 0 0
12-10-2020 25.4 (14:30) 21.1 (00:00) 23.3 7.78 (11:10) 4.17 (06:50) 0 0 0 0 0
11-10-2020 26 (17:00) 17.3 (00:00) 21.6 5.83 (11:50) 3.33 (23:50) 0 0 0 0 0
10-10-2020 22 (16:10) 14.3 (00:00) 18.2 5.83 (02:00) 3.89 (02:00) 0 0 0 0 0
09-10-2020 24.6 (12:50) 15.7 (00:00) 20.2 5 (23:50) 3.61 (23:50) 0 0 0 0 0
08-10-2020 23 (11:10) 16.3 (00:00) 19.6 5.28 (23:20) 3.06 (23:20) 0 0 0 0 0
07-10-2020 23.5 (16:20) 15.8 (00:00) 19.7 4.72 (15:00) 1.94 (05:10) 0 0 0 0 0
06-10-2020 19.2 (11:20) 13.2 (00:00) 16.2 7.5 (03:30) 5.28 (00:10) 1.4 0 0.2 1.2 0
05-10-2020 17.9 (22:20) 9.8 (00:00) 13.8 10.28 (00:20) 5 (23:59) 1 0.8 0.2 0 0
04-10-2020 15.1 (16:00) 9.7 (00:00) 12.4 17.5 (01:40) 8.61 (02:40) 5.2 2 1.6 0.2 1.4
03-10-2020 13.9 (15:20) 10 (00:00) 11.9 17.78 (00:20) 8.33 (00:10) 8.6 2.6 3.2 2.4 0.4
02-10-2020 13.3 (16:40) 9.4 (00:00) 11.3 17.5 (22:00) 10.28 (11:10) 10.8 3.2 3.8 0.4 3.4
01-10-2020 16.6 (14:30) 8.9 (00:00) 12.8 11.94 (23:40) 6.11 (23:40) 1 0 0 0 1

Gráficas

Temp. máximas Temp. mínimas Temp. medias Precipitaciones Rachas de viento máximas Velocidades máximas media en intervalos de 10 minutos

Datos horarios

Fecha y hora oficial Temperatura (ºC) Velocidad del viento (km/h) Dirección del viento Racha (km/h) Dirección de racha Precipitación (mm) Presión (hPa) Tendencia (hPa) Humedad (%)
2020-10-30 23:00:00 17.5 13 Nordeste 45 Norte 0 -- -- 24
2020-10-30 22:00:00 17.1 12 Nordeste 37 Nordeste 0 -- -- 23
2020-10-30 21:00:00 17.7 12 Nordeste 42 Este 0 -- -- 21
2020-10-30 20:00:00 17.8 14 Nordeste 45 Este 0 -- -- 21
2020-10-30 19:00:00 16.9 13 Nordeste 35 Este 0 -- -- 23
2020-10-30 18:00:00 17.6 10 Nordeste 32 Nordeste 0 -- -- 28
2020-10-30 17:00:00 19.8 10 Nordeste 25 Este 0 -- -- 25
2020-10-30 16:00:00 20.4 5 Nordeste 17 Norte 0 -- -- 42
2020-10-30 15:00:00 20.2 6 Nordeste 21 Nordeste 0 -- -- 44
2020-10-30 14:00:00 19.7 5 Nordeste 17 Este 0 -- -- 46
2020-10-30 13:00:00 19.7 6 Nordeste 18 Nordeste 0 -- -- 45
2020-10-30 12:00:00 19.1 5 Este 21 Nordeste 0 -- -- 44
2020-10-30 11:00:00 18.4 5 Nordeste 27 Nordeste 0 -- -- 42
2020-10-30 10:00:00 17.9 8 Nordeste 35 Nordeste 0 -- -- 37
2020-10-30 09:00:00 17.1 9 Nordeste 32 Nordeste 0 -- -- 34
2020-10-30 08:00:00 15.9 14 Nordeste 34 Nordeste 0 -- -- 37
2020-10-30 07:00:00 14.8 8 Nordeste 28 Norte 0 -- -- 34
2020-10-30 06:00:00 13.4 13 Nordeste 30 Nordeste 0 -- -- 40
2020-10-30 05:00:00 12.6 15 Nordeste 25 Nordeste 0 -- -- 46
2020-10-30 04:00:00 12.2 13 Nordeste 25 Nordeste 0 -- -- 47
2020-10-30 03:00:00 14.1 15 Nordeste 30 Nordeste 0 -- -- 44
2020-10-30 02:00:00 14.4 17 Nordeste 27 Nordeste 0 -- -- 38
2020-10-30 01:00:00 13.8 18 Nordeste 29 Norte 0 -- -- 41
2020-10-30 00:00:00 14.1 20 Nordeste 28 Norte 0 -- -- 43
2020-10-29 23:00:00 12.6 9 Nordeste 24 Nordeste 0 -- -- 47
2020-10-29 22:00:00 14.8 10 Nordeste 19 Norte 0 -- -- 38
2020-10-29 21:00:00 15.4 12 Nordeste 18 Nordeste 0 -- -- 37
2020-10-29 20:00:00 14.8 13 Nordeste 22 Nordeste 0 -- -- 42
2020-10-29 19:00:00 14.8 13 Nordeste 21 Norte 0 -- -- 40
2020-10-29 18:00:00 13.7 0 Calma 9 Sudoeste 0 -- -- 79
2020-10-29 17:00:00 15 2 Nordeste 9 Nordeste 0 -- -- 81
2020-10-29 16:00:00 14.7 3 Nordeste 14 Nordeste 0 -- -- 72
2020-10-29 15:00:00 12.5 2 Nordeste 12 Nordeste 0 -- -- 94
2020-10-29 14:00:00 13.2 3 Nordeste 14 Nordeste 0 -- -- 93
2020-10-29 13:00:00 13.2 4 Nordeste 15 Este 0 -- -- 99
2020-10-29 12:00:00 12.3 4 Este 14 Nordeste 0 -- -- 99
2020-10-29 11:00:00 10.9 3 Nordeste 17 Nordeste 0 -- -- 100
2020-10-29 10:00:00 9.4 6 Nordeste 25 Nordeste 0.2 -- -- 100
2020-10-29 09:00:00 9.2 4 Nordeste 22 Nordeste 0 -- -- 100
2020-10-29 08:00:00 9.3 4 Nordeste 23 Nordeste 0.2 -- -- 100
2020-10-29 07:00:00 9.5 10 Nordeste 25 Norte 0.2 -- -- 100
2020-10-29 06:00:00 9.1 4 Nordeste 18 Nordeste 0 -- -- 100
2020-10-29 05:00:00 8.5 4 Nordeste 23 Este 0 -- -- 100
2020-10-29 04:00:00 8.2 6 Nordeste 15 Nordeste 0.2 -- -- 100
2020-10-29 03:00:00 8.1 3 Nordeste 18 Nordeste 0 -- -- 100
2020-10-29 02:00:00 8.7 4 Nordeste 17 Nordeste 0 -- -- 100
2020-10-29 01:00:00 9.1 3 Nordeste 28 Este 0.2 -- -- 100
2020-10-29 00:00:00 8.5 5 Nordeste 23 Nordeste 0.2 -- -- 100
2020-10-28 23:00:00 8.7 5 Nordeste 24 Norte 0.2 -- -- 100
2020-10-28 22:00:00 9.4 4 Nordeste 27 Norte 0.2 -- -- 100
2020-10-28 21:00:00 9.2 7 Nordeste 27 Nordeste 0.2 -- -- 100
2020-10-28 20:00:00 8.5 3 Nordeste 20 Nordeste 0 -- -- 100
2020-10-28 19:00:00 8.1 3 Nordeste 18 Norte 0 -- -- 100
2020-10-28 18:00:00 8.8 4 Nordeste 21 Nordeste 0 -- -- 100
2020-10-28 17:00:00 9.2 5 Nordeste 23 Nordeste 0 -- -- 100
2020-10-28 16:00:00 9.8 0 Calma 12 Nordeste 0 -- -- 99
2020-10-28 15:00:00 10.4 2 Nordeste 12 Este 0 -- -- 99
2020-10-28 14:00:00 10.6 4 Nordeste 23 Nordeste 0 -- -- 100
2020-10-28 13:00:00 9.6 3 Nordeste 24 Este 0 -- -- 100
2020-10-28 12:00:00 9.8 6 Nordeste 27 Nordeste 0.2 -- -- 100
2020-10-28 11:00:00 9.4 10 Nordeste 27 Nordeste 0 -- -- 100
2020-10-28 10:00:00 9.1 6 Nordeste 34 Este 0.4 -- -- 100
2020-10-28 09:00:00 9.2 4 Nordeste 27 Nordeste 0.2 -- -- 100
2020-10-28 08:00:00 8.5 5 Nordeste 27 Este 0 -- -- 100
2020-10-28 07:00:00 7.9 6 Nordeste 31 Nordeste 0.4 -- -- 99
2020-10-28 06:00:00 8.2 8 Nordeste 31 Nordeste 0.2 -- -- 99
2020-10-28 05:00:00 8.1 10 Nordeste 26 Nordeste 0 -- -- 99
2020-10-28 04:00:00 7.9 16 Nordeste 25 Nordeste 0.2 -- -- 99
2020-10-28 03:00:00 8.2 9 Nordeste 28 Nordeste 0.2 -- -- 99
2020-10-28 02:00:00 8.7 12 Nordeste 27 Nordeste 0 -- -- 99
2020-10-28 01:00:00 8.3 9 Nordeste 28 Nordeste 0.2 -- -- 99
2020-10-28 00:00:00 8.5 4 Nordeste 24 Norte 0 -- -- 99
2020-10-27 23:00:00 8.8 11 Nordeste 26 Norte 0 -- -- 99
2020-10-27 22:00:00 8.7 14 Nordeste 28 Nordeste 0 -- -- 98
2020-10-27 21:00:00 8.8 13 Nordeste 26 Norte 0 -- -- 98
2020-10-27 20:00:00 8.8 15 Nordeste 23 Nordeste 0 -- -- 98
2020-10-27 19:00:00 9 7 Nordeste 15 Nordeste 0 -- -- 98
2020-10-27 18:00:00 9.9 3 Nordeste 13 Nordeste 0 -- -- 97
2020-10-27 17:00:00 11.6 2 Nordeste 10 Nordeste 0 -- -- 93
2020-10-27 16:00:00 14.8 3 Este 11 Este 0 -- -- 79
2020-10-27 15:00:00 14.4 4 Este 11 Este 0 -- -- 78
2020-10-27 14:00:00 14.2 4 Este 12 Este 0 -- -- 80
2020-10-27 13:00:00 14.2 5 Este 12 Este 0 -- -- 82
2020-10-27 12:00:00 12.1 7 Este 24 Este 0 -- -- 96
2020-10-27 11:00:00 12 5 Nordeste 31 Este 0 -- -- 91
2020-10-27 10:00:00 11 10 Nordeste 31 Norte 0 -- -- 90
2020-10-27 09:00:00 10.3 4 Nordeste 26 Norte 0 -- -- 92
2020-10-27 08:00:00 8.5 14 Nordeste 30 Nordeste 0 -- -- 97
2020-10-27 07:00:00 7.8 10 Nordeste 25 Norte 0 -- -- 96
2020-10-27 06:00:00 12.5 8 Nordeste 18 Norte 0 -- -- 31
2020-10-27 05:00:00 12 6 Nordeste 18 Norte 0 -- -- 28
2020-10-27 04:00:00 14.1 10 Nordeste 14 Nordeste 0 -- -- 21
2020-10-27 03:00:00 11.5 3 Nordeste 17 Nordeste 0 -- -- 48
2020-10-27 02:00:00 11.7 6 Nordeste 17 Nordeste 0 -- -- 46
2020-10-27 01:00:00 8.2 4 Nordeste 15 Nordeste 0 -- -- 96
2020-10-27 00:00:00 12.6 10 Nordeste 15 Norte 0 -- -- 29
2020-10-26 23:00:00 10.3 6 Nordeste 18 Nordeste 0 -- -- 65
2020-10-26 22:00:00 9.9 14 Nordeste 19 Nordeste 0 -- -- 65
2020-10-26 21:00:00 12.9 9 Nordeste 19 Nordeste 0 -- -- 25
2020-10-26 20:00:00 13.5 7 Nordeste 16 Norte 0 -- -- 21
2020-10-26 19:00:00 11.8 9 Nordeste 17 Norte 0 -- -- 37
2020-10-26 18:00:00 11.1 2 Nordeste 6 Este 0 -- -- 95
2020-10-26 17:00:00 13.9 2 Nordeste 7 Este 0 -- -- 82
2020-10-26 16:00:00 15.6 4 Este 10 Este 0 -- -- 73
2020-10-26 15:00:00 16.1 4 Nordeste 13 Este 0 -- -- 58
2020-10-26 14:00:00 16.4 4 Nordeste 13 Nordeste 0 -- -- 72
2020-10-26 13:00:00 17.5 3 Este 11 Este 0 -- -- 64
2020-10-26 12:00:00 15.4 5 Este 12 Nordeste 0 -- -- 72
2020-10-26 11:00:00 15.5 4 Este 13 Nordeste 0 -- -- 63
2020-10-26 10:00:00 16.3 3 Nordeste 9 Nordeste 0 -- -- 49
2020-10-26 09:00:00 16.5 0 Calma 6 Nordeste 0 -- -- 38
2020-10-26 08:00:00 14.2 2 Nordeste 7 Nordeste 0 -- -- 27
2020-10-26 07:00:00 15.4 0 Calma 5 Nordeste 0 -- -- 37
2020-10-26 06:00:00 15.2 2 Este 8 Este 0 -- -- 38
2020-10-26 05:00:00 14.9 0 Calma 4 Este 0 -- -- 45
2020-10-26 04:00:00 15.3 0 Calma 4 Oeste 0 -- -- 43
2020-10-26 03:00:00 14.7 2 Norte 5 Nordeste 0 -- -- 37
2020-10-26 02:00:00 16.3 0 Calma 5 Norte 0 -- -- 41
2020-10-26 01:00:00 16.5 3 Nordeste 13 Nordeste 0 -- -- 22
2020-10-26 00:00:00 16.3 3 Este 13 Norte 0 -- -- 30
2020-10-25 23:00:00 17.1 8 Norte 16 Norte 0 -- -- 14
2020-10-25 22:00:00 16.8 11 Norte 23 Norte 0 -- -- 18
2020-10-25 21:00:00 16.6 7 Noroeste 17 Noroeste 0 -- -- 48
2020-10-25 20:00:00 16 6 Nordeste 12 Norte 0 -- -- 53
2020-10-25 19:00:00 17 3 Sudoeste 12 Sudoeste 0 -- -- 55
2020-10-25 18:00:00 17.6 7 Sudoeste 14 Sudoeste 0 -- -- 57
2020-10-25 17:00:00 18.9 8 Sudoeste 18 Sudoeste 0 -- -- 55
2020-10-25 16:00:00 19.3 9 Sudoeste 17 Sudoeste 0 -- -- 49
2020-10-25 15:00:00 20.1 8 Sudoeste 20 Oeste 0 -- -- 43
2020-10-25 14:00:00 20.7 10 Sudoeste 22 Sudoeste 0 -- -- 37
2020-10-25 13:00:00 20.6 9 Sudoeste 19 Sudoeste 0 -- -- 32
2020-10-25 12:00:00 20.6 7 Sudoeste 17 Sudoeste 0 -- -- 28
2020-10-25 11:00:00 20.1 7 Sudoeste 14 Sudoeste 0 -- -- 33
2020-10-25 10:00:00 19.3 5 Sudoeste 10 Oeste 0 -- -- 24
2020-10-25 09:00:00 17.4 6 Sudoeste 10 Sudoeste 0 -- -- 21
2020-10-25 08:00:00 15.5 2 Oeste 6 Sudoeste 0 -- -- 30
2020-10-25 07:00:00 15 4 Oeste 8 Sudoeste 0 -- -- 22
2020-10-25 06:00:00 15.9 5 Oeste 8 Oeste 0 -- -- 17
2020-10-25 05:00:00 14.6 4 Oeste 5 Oeste 0 -- -- 11
2020-10-25 04:00:00 15.5 4 Oeste 5 Noroeste 0 -- -- 18
2020-10-25 03:00:00 14.3 3 Oeste 5 Oeste 0 -- -- 15
2020-10-25 02:00:00 14.9 3 Oeste 5 Oeste 0 -- -- 16
2020-10-25 01:00:00 14.6 2 Oeste 3 Oeste 0 -- -- 20
2020-10-25 00:00:00 14.5 0 Calma 4 Norte 0 -- -- 27
2020-10-24 23:00:00 14.1 2 Norte 5 Norte 0 -- -- 19
2020-10-24 22:00:00 14.2 0 Calma 5 Nordeste 0 -- -- 19
2020-10-24 21:00:00 15.4 4 Oeste 4 Oeste 0 -- -- 10
2020-10-24 20:00:00 15.6 0 Calma 7 Oeste 0 -- -- 16
2020-10-24 19:00:00 15.6 2 Oeste 6 Sudoeste 0 -- -- 39
2020-10-24 18:00:00 15.7 4 Sudoeste 9 Sudoeste 0 -- -- 73
2020-10-24 17:00:00 15.7 3 Este 9 Este 0 -- -- 74
2020-10-24 16:00:00 14.7 4 Este 12 Este 0 -- -- 77
2020-10-24 15:00:00 14.2 4 Nordeste 14 Nordeste 0 -- -- 76
2020-10-24 14:00:00 12.2 4 Nordeste 15 Este 0 -- -- 87
2020-10-24 13:00:00 9.8 6 Nordeste 17 Norte 0 -- -- 98
2020-10-24 12:00:00 9.6 8 Nordeste 21 Nordeste 0 -- -- 98
2020-10-24 11:00:00 9.4 5 Nordeste 22 Nordeste 0 -- -- 97
2020-10-24 10:00:00 7.7 7 Nordeste 24 Norte 0 -- -- 99
2020-10-24 09:00:00 7 14 Nordeste 28 Nordeste 0 -- -- 99
2020-10-24 08:00:00 7.4 8 Nordeste 25 Nordeste 0 -- -- 98
2020-10-24 07:00:00 7.1 18 Norte 24 Norte 0 -- -- 91
2020-10-24 06:00:00 7.8 15 Nordeste 21 Nordeste 0 -- -- 69
2020-10-24 05:00:00 7.2 16 Nordeste 23 Norte 0.2 -- -- 75
2020-10-24 04:00:00 6.9 16 Norte 27 Nordeste 0 -- -- 99
2020-10-24 03:00:00 7.9 11 Nordeste 28 Nordeste 0 -- -- 99
2020-10-24 02:00:00 7.5 8 Nordeste 28 Nordeste 0 -- -- 97
2020-10-24 01:00:00 6.6 10 Nordeste 25 Nordeste 0 -- -- 99
2020-10-24 00:00:00 7.1 12 Nordeste 27 Norte 0 -- -- 99
2020-10-23 23:00:00 7.8 11 Nordeste 35 Nordeste 0 -- -- 99
2020-10-23 22:00:00 7.8 9 Nordeste 27 Nordeste 0 -- -- 98
2020-10-23 21:00:00 7.5 8 Nordeste 36 Nordeste 0 -- -- 98
2020-10-23 20:00:00 7.6 16 Nordeste 30 Nordeste 0 -- -- 95
2020-10-23 19:00:00 8.4 4 Nordeste 19 Nordeste 0 -- -- 96
2020-10-23 18:00:00 9.8 5 Nordeste 24 Nordeste 0 -- -- 87
2020-10-23 17:00:00 10.8 3 Nordeste 18 Nordeste 0 -- -- 87
2020-10-23 16:00:00 11 3 Nordeste 24 Nordeste 0 -- -- 86
2020-10-23 15:00:00 11.1 4 Nordeste 24 Nordeste 0 -- -- 79
2020-10-23 14:00:00 8.9 4 Nordeste 24 Nordeste 0 -- -- 98
2020-10-23 13:00:00 8.7 9 Nordeste 22 Nordeste 0 -- -- 98
2020-10-23 12:00:00 9.1 4 Nordeste 28 Este 0 -- -- 95
2020-10-23 11:00:00 8.6 6 Nordeste 23 Norte 0 -- -- 92
2020-10-23 10:00:00 8.4 10 Nordeste 30 Este 0 -- -- 88
2020-10-23 09:00:00 7.4 13 Nordeste 32 Nordeste 0 -- -- 94
2020-10-23 08:00:00 6.9 4 Nordeste 28 Este 0 -- -- 89
2020-10-23 07:00:00 7 7 Nordeste 31 Nordeste 0 -- -- 96
2020-10-23 06:00:00 7.1 9 Nordeste 31 Nordeste 0 -- -- 97
2020-10-23 05:00:00 7.2 7 Nordeste 30 Este 0 -- -- 95
2020-10-23 04:00:00 7.2 5 Nordeste 27 Nordeste 0 -- -- 95
2020-10-23 03:00:00 7.5 6 Nordeste 24 Norte 0 -- -- 97
2020-10-23 02:00:00 7.5 9 Este 28 Este 0 -- -- 97
2020-10-23 01:00:00 7 2 Nordeste 17 Este 0.2 -- -- 99
2020-10-23 00:00:00 8.1 6 Nordeste 17 Nordeste 0 -- -- 99
2020-10-22 23:00:00 8 5 Nordeste 16 Nordeste 0 -- -- 98
2020-10-22 22:00:00 8.1 4 Nordeste 17 Nordeste 0 -- -- 96
2020-10-22 21:00:00 8 10 Norte 18 Norte 0 -- -- 91
2020-10-22 20:00:00 8.8 9 Norte 19 Noroeste 0 -- -- 92
2020-10-22 19:00:00 9.8 5 Noroeste 17 Noroeste 0 -- -- 88
2020-10-22 18:00:00 11.2 5 Nordeste 15 Sudoeste 0 -- -- 83
2020-10-22 17:00:00 14.2 5 Nordeste 14 Sudeste 0 -- -- 75
2020-10-22 16:00:00 13.4 7 Sur 21 Sudoeste 0 -- -- 81
2020-10-22 15:00:00 13.5 8 Sudoeste 23 Oeste 0 -- -- 72
2020-10-22 14:00:00 12.5 10 Sudoeste 21 Sudoeste 0 -- -- 78
2020-10-22 13:00:00 12.5 6 Sudoeste 17 Sudoeste 0 -- -- 83
2020-10-22 12:00:00 10 5 Sudoeste 16 Sudoeste 0 -- -- 98
2020-10-22 11:00:00 9.5 4 Sudoeste 18 Norte 0.2 -- -- 99
2020-10-22 10:00:00 9.5 4 Sudoeste 14 Noroeste 0.4 -- -- 99
2020-10-22 09:00:00 8.5 3 Sudeste 18 Norte 0.4 -- -- 100
2020-10-22 08:00:00 9 6 Sudoeste 12 Sudoeste 0 -- -- 100
2020-10-22 07:00:00 8.9 3 Sudoeste 15 Sudoeste 0 -- -- 100
2020-10-22 06:00:00 9 8 Sudoeste 16 Sudoeste 0 -- -- 100
2020-10-22 05:00:00 9 7 Sudoeste 17 Sudoeste 0 -- -- 99
2020-10-22 04:00:00 9.3 10 Sudoeste 18 Sudoeste 0 -- -- 99
2020-10-22 03:00:00 10.5 3 Sudoeste 17 Oeste 0.2 -- -- 99
2020-10-22 02:00:00 10.7 10 Sudoeste 22 Sudoeste 1.2 -- -- 99
2020-10-22 01:00:00 10.9 4 Sudoeste 22 Sudoeste 0.2 -- -- 99
2020-10-22 00:00:00 10.8 9 Sudoeste 19 Oeste 0 -- -- 99
2020-10-21 23:00:00 10.8 10 Sudoeste 18 Sudoeste 0 -- -- 99
2020-10-21 22:00:00 11.1 11 Sudoeste 19 Sudoeste 0 -- -- 99
2020-10-21 21:00:00 11 5 Sudoeste 17 Sudoeste 0 -- -- 99
2020-10-21 20:00:00 11.1 9 Oeste 18 Sudoeste 0 -- -- 98
2020-10-21 19:00:00 11.5 4 Sudoeste 19 Oeste 0 -- -- 98
2020-10-21 18:00:00 12.2 7 Sudoeste 14 Sudoeste 0 -- -- 95
2020-10-21 17:00:00 12.2 4 Sudoeste 24 Sudoeste 0 -- -- 96
2020-10-21 16:00:00 13.2 3 Sudeste 22 Sudoeste 0 -- -- 90
2020-10-21 15:00:00 13.9 3 Nordeste 15 Sudoeste 0 -- -- 90
2020-10-21 14:00:00 13 2 Este 15 Este 0 -- -- 90
2020-10-21 13:00:00 13.8 4 Este 19 Este 0 -- -- 85
2020-10-21 12:00:00 12.8 3 Nordeste 18 Este 0 -- -- 84
2020-10-21 11:00:00 11.7 5 Nordeste 19 Este 0 -- -- 89
2020-10-21 10:00:00 11.7 0 Calma 12 Sudoeste 0 -- -- 89
2020-10-21 09:00:00 10.6 5 Sudoeste 12 Sudoeste 0 -- -- 85
2020-10-21 08:00:00 9.4 0 Calma 22 Oeste 0 -- -- 89
2020-10-21 07:00:00 10.2 4 Sudoeste 24 Sudoeste 0 -- -- 84
2020-10-21 06:00:00 10.8 15 Sudoeste 28 Sudoeste 0 -- -- 74
2020-10-21 05:00:00 10.7 3 Sudoeste 25 Sudoeste 0 -- -- 96
2020-10-21 04:00:00 11.2 11 Sudoeste 27 Sudoeste 0 -- -- 86
2020-10-21 03:00:00 11.9 5 Sudoeste 24 Oeste 0 -- -- 76
2020-10-21 02:00:00 11.5 6 Sudoeste 18 Sudoeste 0 -- -- 97
2020-10-21 01:00:00 12.2 10 Sudoeste 31 Sudoeste 0 -- -- 97
2020-10-21 00:00:00 12.8 12 Sudoeste 24 Oeste 0 -- -- 92
2020-10-20 23:00:00 13.1 5 Sudoeste 30 Sudoeste 0 -- -- 93
2020-10-20 22:00:00 13.4 8 Sudoeste 39 Sudoeste 0 -- -- 92
2020-10-20 21:00:00 13.7 11 Sudoeste 44 Sudoeste 0 -- -- 97
2020-10-20 20:00:00 14.1 15 Sudoeste 50 Sudoeste 0 -- -- 98
2020-10-20 19:00:00 14.4 17 Sudoeste 55 Sudoeste 0 -- -- 98
2020-10-20 18:00:00 15 17 Sudoeste 60 Sudoeste 0 -- -- 98
2020-10-20 17:00:00 15.6 15 Sudoeste 66 Sudoeste 0.2 -- -- 97
2020-10-20 16:00:00 14.8 26 Sudoeste 80 Sudoeste 0.8 -- -- 96
2020-10-20 15:00:00 15.8 25 Sudoeste 81 Sudoeste 0 -- -- 87
2020-10-20 14:00:00 16.4 32 Sudoeste 84 Sudoeste 0 -- -- 78
2020-10-20 13:00:00 16.9 33 Sudoeste 90 Sudoeste 0 -- -- 67
2020-10-20 12:00:00 16.4 31 Sudoeste 93 Sudoeste 0 -- -- 69
2020-10-20 11:00:00 15.2 33 Sudoeste 89 Sudoeste 0 -- -- 73
2020-10-20 10:00:00 15 21 Sudoeste 54 Sudoeste 0 -- -- 71
2020-10-20 09:00:00 15.7 17 Sudoeste 51 Sudoeste 0 -- -- 61
2020-10-20 08:00:00 15.7 12 Sudoeste 49 Oeste 0 -- -- 60
2020-10-20 07:00:00 16 13 Sudoeste 41 Sudoeste 0 -- -- 58
2020-10-20 06:00:00 15.9 11 Sudoeste 48 Sudoeste 0 -- -- 58
2020-10-20 05:00:00 15.7 21 Sudoeste 44 Oeste 0 -- -- 64
2020-10-20 04:00:00 16.7 10 Sudoeste 29 Sudoeste 0 -- -- 59
2020-10-20 03:00:00 17.5 14 Sudoeste 41 Sudoeste 0 -- -- 60
2020-10-20 02:00:00 17.5 16 Sudoeste 39 Sudoeste 0 -- -- 64
2020-10-20 01:00:00 16.9 14 Sudoeste 41 Sudoeste 0 -- -- 65
2020-10-20 00:00:00 16.7 14 Sudoeste 28 Sudoeste 0 -- -- 69
2020-10-19 23:00:00 16 15 Sudoeste 26 Sudoeste 0 -- -- 78
2020-10-19 22:00:00 16 13 Sudoeste 30 Sudoeste 0 -- -- 79
2020-10-19 21:00:00 16 17 Sudoeste 30 Sudoeste 0 -- -- 80
2020-10-19 20:00:00 16.3 17 Sudoeste 33 Sudoeste 0 -- -- 79
2020-10-19 19:00:00 17.3 15 Sudoeste 38 Sudoeste 0 -- -- 76
2020-10-19 18:00:00 18.9 12 Sudoeste 41 Oeste 0 -- -- 69
2020-10-19 17:00:00 19.2 19 Sudoeste 46 Sudoeste 0 -- -- 68
2020-10-19 16:00:00 18.8 15 Sudoeste 42 Sudoeste 0 -- -- 68
2020-10-19 15:00:00 19.7 13 Sudoeste 41 Sudoeste 0 -- -- 64
2020-10-19 14:00:00 19.2 19 Sudoeste 53 Sudoeste 0 -- -- 65
2020-10-19 13:00:00 18.6 19 Sudoeste 46 Sudoeste 0 -- -- 67
2020-10-19 12:00:00 18.5 12 Sudoeste 40 Sudoeste 0 -- -- 66
2020-10-19 11:00:00 17.3 14 Sudoeste 41 Sudoeste 0 -- -- 71
2020-10-19 10:00:00 15.7 14 Sudoeste 42 Sudoeste 0 -- -- 77
2020-10-19 09:00:00 15.2 14 Sudoeste 42 Sudoeste 0 -- -- 79
2020-10-19 08:00:00 14.5 17 Sudoeste 37 Oeste 0 -- -- 81
2020-10-19 07:00:00 13.8 12 Sudoeste 33 Sudoeste 0 -- -- 90
2020-10-19 06:00:00 14 14 Sudoeste 37 Sudoeste 0 -- -- 90
2020-10-19 05:00:00 14.3 18 Sudoeste 37 Sudoeste 0 -- -- 90
2020-10-19 04:00:00 13.7 14 Sudoeste 40 Sudoeste 0 -- -- 96
2020-10-19 03:00:00 13.8 13 Sudoeste 39 Sudoeste 0 -- -- 93
2020-10-19 02:00:00 14.6 19 Sudoeste 42 Sudoeste 0 -- -- 79
2020-10-19 01:00:00 14.7 13 Sudoeste 29 Sudoeste 0 -- -- 75
2020-10-19 00:00:00 15.1 7 Sudoeste 31 Oeste 0 -- -- 66
2020-10-18 23:00:00 15.5 10 Sudoeste 32 Sudoeste 0 -- -- 61
2020-10-18 22:00:00 15.5 16 Sudoeste 31 Sudoeste 0 -- -- 63
2020-10-18 21:00:00 15.7 16 Sudoeste 30 Sudoeste 0 -- -- 62
2020-10-18 20:00:00 15.6 16 Sudoeste 27 Sudoeste 0 -- -- 63
2020-10-18 19:00:00 16.4 12 Sudoeste 30 Sudoeste 0 -- -- 71
2020-10-18 18:00:00 18.1 10 Sudoeste 26 Sudoeste 0 -- -- 60
2020-10-18 17:00:00 18.2 13 Sudoeste 24 Sudoeste 0 -- -- 61
2020-10-18 16:00:00 18.5 12 Sudoeste 32 Sudoeste 0 -- -- 59
2020-10-18 15:00:00 18.2 18 Sudoeste 33 Sudoeste 0 -- -- 59
2020-10-18 14:00:00 18.5 13 Sudoeste 27 Sudoeste 0 -- -- 54
2020-10-18 13:00:00 17.5 10 Sudoeste 24 Sudoeste 0 -- -- 46
2020-10-18 12:00:00 15.6 9 Sudoeste 25 Sudoeste 0 -- -- 59
2020-10-18 11:00:00 14.5 7 Sudoeste 22 Sudoeste 0 -- -- 67
2020-10-18 10:00:00 13.5 10 Sudoeste 20 Oeste 0 -- -- 69
2020-10-18 09:00:00 12.7 12 Sudoeste 22 Sudoeste 0 -- -- 70
2020-10-18 08:00:00 12.8 12 Sudoeste 22 Sudoeste 0 -- -- 66
2020-10-18 07:00:00 12 12 Sudoeste 22 Sudoeste 0 -- -- 70
2020-10-18 06:00:00 10.3 9 Sudoeste 21 Sudoeste 0 -- -- 94
2020-10-18 05:00:00 10.4 11 Sudoeste 23 Sudoeste 0 -- -- 94
2020-10-18 04:00:00 11.1 6 Sudoeste 11 Sudoeste 0 -- -- 85
2020-10-18 03:00:00 13.1 6 Sudoeste 13 Sudoeste 0 -- -- 57
2020-10-18 02:00:00 12.8 3 Oeste 9 Sudoeste 0 -- -- 56
2020-10-18 01:00:00 11.9 4 Sudoeste 8 Sudoeste 0 -- -- 82
2020-10-18 00:00:00 11.3 0 Calma 8 Oeste 0 -- -- 57
2020-10-17 23:00:00 10.7 6 Sudoeste 9 Sudoeste 0 -- -- 95
2020-10-17 22:00:00 10.8 4 Sudoeste 8 Oeste 0 -- -- 96
2020-10-17 21:00:00 11.3 4 Sudoeste 13 Sudoeste 0 -- -- 95
2020-10-17 20:00:00 11.7 9 Sudoeste 20 Sudoeste 0 -- -- 96
2020-10-17 19:00:00 12.1 3 Sur 18 Sudoeste 0 -- -- 95
2020-10-17 18:00:00 12.8 4 Sudoeste 21 Sudoeste 0 -- -- 94
2020-10-17 17:00:00 13.1 5 Sudoeste 18 Noroeste 0 -- -- 93
2020-10-17 16:00:00 13.8 6 Sudoeste 17 Oeste 0 -- -- 90
2020-10-17 15:00:00 13.3 3 Este 10 Nordeste 0 -- -- 92
2020-10-17 14:00:00 15.6 7 Sudoeste 23 Sudoeste 0 -- -- 77
2020-10-17 13:00:00 16.3 4 Sudoeste 15 Sudoeste 0 -- -- 68
2020-10-17 12:00:00 15.3 5 Este 13 Este 0 -- -- 73
2020-10-17 11:00:00 13.7 5 Este 15 Nordeste 0 -- -- 75
2020-10-17 10:00:00 10.3 4 Nordeste 19 Este 0 -- -- 98
2020-10-17 09:00:00 8.6 2 Nordeste 15 Nordeste 0 -- -- 98
2020-10-17 08:00:00 8.3 6 Nordeste 15 Nordeste 0 -- -- 97
2020-10-17 07:00:00 10.9 9 Norte 16 Norte 0 -- -- 71
2020-10-17 06:00:00 8.4 0 Calma 5 Sudoeste 0 -- -- 92
2020-10-17 05:00:00 8.5 2 Nordeste 8 Sudoeste 0 -- -- 95
2020-10-17 04:00:00 9.3 0 Calma 6 Nordeste 0 -- -- 87
2020-10-17 03:00:00 12.2 0 Calma 8 Sudoeste 0 -- -- 53
2020-10-17 02:00:00 12 5 Sudoeste 9 Sudoeste 0 -- -- 69
2020-10-17 01:00:00 9.4 3 Nordeste 7 Oeste 0 -- -- 97
2020-10-17 00:00:00 9.9 0 Calma 5 Nordeste 0 -- -- 97
2020-10-16 23:00:00 10.4 0 Calma 8 Nordeste 0 -- -- 97
2020-10-16 22:00:00 10.8 0 Calma 5 Nordeste 0 -- -- 96
2020-10-16 21:00:00 12 2 Nordeste 6 Sudoeste 0 -- -- 91
2020-10-16 20:00:00 13.8 4 Sudoeste 9 Oeste 0 -- -- 91
2020-10-16 19:00:00 14.4 6 Sudoeste 12 Sudoeste 0 -- -- 91
2020-10-16 18:00:00 16.7 3 Este 17 Sudoeste 0 -- -- 79
2020-10-16 17:00:00 17.6 3 Este 11 Este 0 -- -- 75
2020-10-16 16:00:00 19.6 6 Este 12 Este 0 -- -- 67
2020-10-16 15:00:00 19.6 4 Este 11 Este 0 -- -- 66
2020-10-16 14:00:00 20.2 3 Este 10 Este 0 -- -- 60
2020-10-16 13:00:00 19.7 4 Este 14 Este 0 -- -- 60
2020-10-16 12:00:00 20.4 3 Sudeste 10 Sur 0 -- -- 50
2020-10-16 11:00:00 20.2 3 Este 9 Este 0 -- -- 37
2020-10-16 10:00:00 18.1 3 Nordeste 10 Nordeste 0 -- -- 40
2020-10-16 09:00:00 16.9 4 Nordeste 11 Nordeste 0 -- -- 43
2020-10-16 08:00:00 14.8 2 Noroeste 6 Noroeste 0 -- -- 46
2020-10-16 07:00:00 15.1 3 Oeste 5 Oeste 0 -- -- 38
2020-10-16 06:00:00 14.8 0 Calma 5 Oeste 0 -- -- 43
2020-10-16 05:00:00 14.2 2 Oeste 4 Oeste 0 -- -- 40
2020-10-16 04:00:00 14.1 2 Oeste 4 Oeste 0 -- -- 40
2020-10-16 03:00:00 14.9 3 Oeste 5 Oeste 0 -- -- 35
2020-10-16 02:00:00 15.6 4 Oeste 5 Oeste 0 -- -- 32
2020-10-16 01:00:00 15.5 2 Oeste 4 Norte 0 -- -- 41
2020-10-16 00:00:00 15.9 0 Calma 8 Norte 0 -- -- 46
2020-10-15 23:00:00 16.4 4 Nordeste 10 Norte 0 -- -- 44
2020-10-15 22:00:00 16.5 3 Nordeste 10 Nordeste 0 -- -- 43
2020-10-15 21:00:00 16.3 4 Nordeste 14 Nordeste 0 -- -- 42
2020-10-15 20:00:00 15.8 4 Nordeste 11 Nordeste 0 -- -- 51
2020-10-15 19:00:00 16.9 4 Nordeste 19 Nordeste 0 -- -- 44
2020-10-15 18:00:00 18.8 3 Nordeste 15 Este 0 -- -- 40
2020-10-15 17:00:00 19.1 4 Nordeste 14 Nordeste 0 -- -- 38
2020-10-15 16:00:00 19.2 5 Nordeste 19 Este 0 -- -- 40
2020-10-15 15:00:00 20 4 Nordeste 23 Este 0 -- -- 35
2020-10-15 14:00:00 20.1 6 Nordeste 18 Este 0 -- -- 33
2020-10-15 13:00:00 19.6 5 Nordeste 20 Este 0 -- -- 30
2020-10-15 12:00:00 20.4 4 Nordeste 23 Este 0 -- -- 23
2020-10-15 11:00:00 20.4 5 Nordeste 15 Este 0 -- -- 13
2020-10-15 10:00:00 19.1 4 Nordeste 14 Norte 0 -- -- 12
2020-10-15 09:00:00 17 4 Nordeste 22 Nordeste 0 -- -- 14
2020-10-15 08:00:00 16.7 15 Norte 26 Norte 0 -- -- 22
2020-10-15 07:00:00 17.3 0 Calma 11 Sudoeste 0 -- -- 28
2020-10-15 06:00:00 18.6 4 Oeste 10 Sudoeste 0 -- -- 29
2020-10-15 05:00:00 19.2 5 Sudoeste 10 Sudoeste 0 -- -- 28
2020-10-15 04:00:00 17.7 3 Oeste 6 Oeste 0 -- -- 30
2020-10-15 03:00:00 17.1 3 Nordeste 6 Norte 0 -- -- 20
2020-10-15 02:00:00 18.1 6 Oeste 8 Oeste 0 -- -- 32
2020-10-15 01:00:00 18.7 0 Calma 7 Norte 0 -- -- 30
2020-10-15 00:00:00 19.7 4 Nordeste 10 Norte 0 -- -- 18
2020-10-14 23:00:00 18.8 4 Norte 8 Norte 0 -- -- 17
2020-10-14 22:00:00 18.3 3 Norte 5 Nordeste 0 -- -- 20
2020-10-14 21:00:00 19.2 0 Calma 4 Oeste 0 -- -- 33
2020-10-14 20:00:00 20.1 2 Oeste 9 Sudoeste 0 -- -- 34
2020-10-14 19:00:00 22.1 0 Calma 5 Este 0 -- -- 28
2020-10-14 18:00:00 24.6 3 Este 8 Nordeste 0 -- -- 27
2020-10-14 17:00:00 23.5 4 Este 12 Este 0 -- -- 32
2020-10-14 16:00:00 24.6 5 Este 15 Este 0 -- -- 29
2020-10-14 15:00:00 23.7 6 Este 16 Este 0 -- -- 31
2020-10-14 14:00:00 24.3 5 Este 18 Este 0 -- -- 26
2020-10-14 13:00:00 24.2 5 Este 18 Este 0 -- -- 25
2020-10-14 12:00:00 23.5 5 Nordeste 20 Nordeste 0 -- -- 23
2020-10-14 11:00:00 22.8 4 Nordeste 15 Nordeste 0 -- -- 26
2020-10-14 10:00:00 22 3 Nordeste 11 Nordeste 0 -- -- 30
2020-10-14 09:00:00 20.2 4 Nordeste 14 Nordeste 0 -- -- 34
2020-10-14 08:00:00 19.2 5 Nordeste 13 Norte 0 -- -- 33
2020-10-14 07:00:00 19.4 9 Norte 13 Nordeste 0 -- -- 30
2020-10-14 06:00:00 18.9 9 Nordeste 14 Nordeste 0 -- -- 33
2020-10-14 05:00:00 18.9 6 Nordeste 19 Norte 0 -- -- 30
2020-10-14 04:00:00 19.3 7 Nordeste 15 Nordeste 0 -- -- 30
2020-10-14 03:00:00 18.2 3 Nordeste 14 Nordeste 0 -- -- 32
2020-10-14 02:00:00 19.3 3 Nordeste 17 Nordeste 0 -- -- 30
2020-10-14 01:00:00 20.8 6 Nordeste 19 Nordeste 0 -- -- 26
2020-10-14 00:00:00 21.1 8 Nordeste 20 Nordeste 0 -- -- 26
2020-10-13 23:00:00 21.2 15 Nordeste 20 Norte 0 -- -- 26
2020-10-13 22:00:00 22.3 11 Nordeste 19 Norte 0 -- -- 24
2020-10-13 21:00:00 21.8 8 Nordeste 18 Nordeste 0 -- -- 35
2020-10-13 20:00:00 22.5 11 Nordeste 15 Norte 0 -- -- 25
2020-10-13 19:00:00 22.9 4 Nordeste 9 Nordeste 0 -- -- 32
2020-10-13 18:00:00 23.5 2 Nordeste 14 Este 0 -- -- 40
2020-10-13 17:00:00 24.7 2 Nordeste 9 Norte 0 -- -- 29
2020-10-13 16:00:00 24.7 3 Este 12 Sur 0 -- -- 36
2020-10-13 15:00:00 24.4 5 Sudoeste 14 Oeste 0 -- -- 31
2020-10-13 14:00:00 25.4 4 Este 15 Este 0 -- -- 27
2020-10-13 13:00:00 23.7 4 Nordeste 19 Este 0 -- -- 37
2020-10-13 12:00:00 24.3 6 Nordeste 25 Nordeste 0 -- -- 25
2020-10-13 11:00:00 24.1 6 Nordeste 21 Nordeste 0 -- -- 24
2020-10-13 10:00:00 -- -- -- -- -- -- -- -- --
2020-10-13 09:00:00 -- -- -- -- -- -- -- -- --
2020-10-13 08:00:00 21.2 15 Nordeste 24 Nordeste 0 -- -- 25
2020-10-13 07:00:00 21 11 Nordeste 21 Norte 0 -- -- 25
2020-10-13 06:00:00 21.2 10 Nordeste 21 Norte 0 -- -- 25
2020-10-13 05:00:00 21.3 12 Nordeste 24 Nordeste 0 -- -- 26
2020-10-13 04:00:00 22 13 Nordeste 21 Nordeste 0 -- -- 23
2020-10-13 03:00:00 -- -- -- -- -- -- -- -- --
2020-10-13 02:00:00 22.3 11 Nordeste 20 Nordeste 0 -- -- 24
2020-10-13 01:00:00 22.5 10 Nordeste 19 Nordeste 0 -- -- 24
2020-10-13 00:00:00 -- -- -- -- -- -- -- -- --
2020-10-12 23:00:00 22.6 11 Nordeste 18 Nordeste 0 -- -- 23
2020-10-12 22:00:00 22.7 10 Nordeste 19 Norte 0 -- -- 23
2020-10-12 21:00:00 23 11 Nordeste 19 Nordeste 0 -- -- 22
2020-10-12 20:00:00 23.2 11 Nordeste 19 Nordeste 0 -- -- 22
2020-10-12 19:00:00 23.3 10 Nordeste 17 Nordeste 0 -- -- 24
2020-10-12 18:00:00 24.1 4 Nordeste 19 Nordeste 0 -- -- 26
2020-10-12 17:00:00 24.7 4 Nordeste 21 Nordeste 0 -- -- 24
2020-10-12 16:00:00 25.2 6 Nordeste 18 Norte 0 -- -- 25
2020-10-12 15:00:00 25.1 6 Nordeste 26 Nordeste 0 -- -- 25
2020-10-12 14:00:00 24.9 9 Nordeste 25 Nordeste 0 -- -- 26
2020-10-12 13:00:00 24.7 6 Nordeste 27 Nordeste 0 -- -- 26
2020-10-12 12:00:00 24.1 7 Nordeste 28 Nordeste 0 -- -- 25
2020-10-12 11:00:00 23.1 7 Nordeste 26 Nordeste 0 -- -- 26
2020-10-12 10:00:00 22 8 Nordeste 25 Nordeste 0 -- -- 26
2020-10-12 09:00:00 21.6 7 Nordeste 22 Nordeste 0 -- -- 27
2020-10-12 08:00:00 21.3 12 Nordeste 23 Nordeste 0 -- -- 26
2020-10-12 07:00:00 21.3 14 Nordeste 22 Nordeste 0 -- -- 25
2020-10-12 06:00:00 21.3 13 Nordeste 20 Norte 0 -- -- 28
2020-10-12 05:00:00 21.2 12 Nordeste 19 Nordeste 0 -- -- 31
2020-10-12 04:00:00 21.2 12 Nordeste 21 Norte 0 -- -- 32
2020-10-12 03:00:00 -- -- -- -- -- -- -- -- --
2020-10-12 02:00:00 21.6 10 Nordeste 16 Norte 0 -- -- 33
2020-10-12 01:00:00 21.8 11 Nordeste 15 Norte 0 -- -- 32
2020-10-12 00:00:00 21.7 6 Nordeste 18 Nordeste 0 -- -- 33
2020-10-11 23:00:00 21.9 3 Nordeste 15 Este 0 -- -- 32
2020-10-11 22:00:00 22.7 6 Este 18 Sudeste 0 -- -- 27
2020-10-11 21:00:00 22.2 3 Este 17 Este 0 -- -- 28
2020-10-11 20:00:00 -- -- -- -- -- -- -- -- --
2020-10-11 19:00:00 -- -- -- -- -- -- -- -- --
2020-10-11 18:00:00 25.5 3 Este 13 Sudoeste 0 -- -- 42
2020-10-11 17:00:00 26 3 Este 9 Oeste 0 -- -- 36
2020-10-11 16:00:00 24.7 4 Este 12 Este 0 -- -- 45
2020-10-11 15:00:00 23.3 4 Este 14 Este 0 -- -- 47
2020-10-11 14:00:00 21.9 4 Este 15 Nordeste 0 -- -- 50
2020-10-11 13:00:00 21.7 4 Nordeste 19 Norte 0 -- -- 40
2020-10-11 12:00:00 22.1 5 Nordeste 21 Este 0 -- -- 35
2020-10-11 11:00:00 22.3 4 Nordeste 13 Nordeste 0 -- -- 31
2020-10-11 10:00:00 21.4 3 Nordeste 18 Nordeste 0 -- -- 33
2020-10-11 09:00:00 20.8 3 Sudoeste 13 Este 0 -- -- 34
2020-10-11 08:00:00 17.5 3 Nordeste 9 Nordeste 0 -- -- 40
2020-10-11 07:00:00 19.1 0 Calma 5 Sur 0 -- -- 29
2020-10-11 06:00:00 17.5 4 Nordeste 8 Norte 0 -- -- 40
2020-10-11 05:00:00 19.2 0 Calma 7 Sur 0 -- -- 28
2020-10-11 04:00:00 19.6 2 Este 12 Sur 0 -- -- 29
2020-10-11 03:00:00 19.5 2 Sudeste 8 Sur 0 -- -- 32
2020-10-11 02:00:00 18.5 0 Calma 9 Oeste 0 -- -- 37
2020-10-11 01:00:00 18.3 0 Calma 12 Oeste 0 -- -- 39
2020-10-11 00:00:00 19.4 4 Oeste 16 Oeste 0 -- -- 36
2020-10-10 23:00:00 20 7 Oeste 12 Oeste 0 -- -- 35
2020-10-10 22:00:00 19.9 4 Sudoeste 10 Sudoeste 0 -- -- 36
2020-10-10 21:00:00 20.1 5 Oeste 17 Oeste 0 -- -- 38
2020-10-10 20:00:00 19.3 4 Oeste 14 Sudoeste 0 -- -- 50
2020-10-10 19:00:00 19.6 4 Sudoeste 12 Sur 0 -- -- 62
2020-10-10 18:00:00 21.1 2 Este 8 Este 0 -- -- 66
2020-10-10 17:00:00 21.5 3 Este 9 Este 0 -- -- 65
2020-10-10 16:00:00 20.9 4 Este 12 Este 0 -- -- 67
2020-10-10 15:00:00 18.4 4 Nordeste 14 Este 0 -- -- 75
2020-10-10 14:00:00 19.3 5 Este 14 Este 0 -- -- 65
2020-10-10 13:00:00 18.4 4 Nordeste 15 Nordeste 0 -- -- 56
2020-10-10 12:00:00 17.9 4 Nordeste 16 Nordeste 0 -- -- 53
2020-10-10 11:00:00 17.7 4 Nordeste 14 Nordeste 0 -- -- 51
2020-10-10 10:00:00 16.9 3 Nordeste 12 Nordeste 0 -- -- 49
2020-10-10 09:00:00 16.5 3 Nordeste 12 Nordeste 0 -- -- 41
2020-10-10 08:00:00 16.6 7 Nordeste 14 Nordeste 0 -- -- 32
2020-10-10 07:00:00 15 4 Nordeste 12 Nordeste 0 -- -- 34
2020-10-10 06:00:00 16.2 5 Nordeste 11 Norte 0 -- -- 23
2020-10-10 05:00:00 17.7 6 Nordeste 9 Nordeste 0 -- -- 20
2020-10-10 04:00:00 17.6 6 Nordeste 14 Nordeste 0 -- -- 18
2020-10-10 03:00:00 18.1 13 Norte 19 Norte 0 -- -- 17
2020-10-10 02:00:00 17.9 14 Nordeste 21 Nordeste 0 -- -- 16
2020-10-10 01:00:00 16.5 4 Nordeste 14 Nordeste 0 -- -- 26
2020-10-10 00:00:00 16.6 3 Nordeste 18 Norte 0 -- -- 27
2020-10-09 23:00:00 16.4 6 Nordeste 12 Norte 0 -- -- 33
2020-10-09 22:00:00 17.7 6 Nordeste 15 Norte 0 -- -- 29
2020-10-09 21:00:00 17.1 8 Nordeste 14 Norte 0 -- -- 41
2020-10-09 20:00:00 18.3 6 Norte 14 Norte 0 -- -- 25
2020-10-09 19:00:00 16.9 0 Calma 6 Sudoeste 0 -- -- 84
2020-10-09 18:00:00 21.6 4 Sur 10 Sudeste 0 -- -- 68
2020-10-09 17:00:00 20.9 3 Nordeste 14 Sudoeste 0 -- -- 70
2020-10-09 16:00:00 22.2 9 Sudoeste 17 Sudoeste 0 -- -- 58
2020-10-09 15:00:00 22.2 4 Este 10 Este 0 -- -- 65
2020-10-09 14:00:00 21.8 3 Este 12 Oeste 0 -- -- 62
2020-10-09 13:00:00 24 4 Sur 10 Nordeste 0 -- -- 30
2020-10-09 12:00:00 23.4 4 Este 9 Este 0 -- -- 46
2020-10-09 11:00:00 22.3 3 Este 9 Nordeste 0 -- -- 35
2020-10-09 10:00:00 19.6 3 Este 5 Este 0 -- -- 49
2020-10-09 09:00:00 19.3 0 Calma 4 Sudoeste 0 -- -- 22
2020-10-09 08:00:00 17.8 3 Norte 10 Norte 0 -- -- 21
2020-10-09 07:00:00 18 6 Norte 13 Nordeste 0 -- -- 30
2020-10-09 06:00:00 18.1 9 Nordeste 12 Nordeste 0 -- -- 33
2020-10-09 05:00:00 18.9 8 Nordeste 12 Nordeste 0 -- -- 23
2020-10-09 04:00:00 19.2 8 Nordeste 12 Nordeste 0 -- -- 20
2020-10-09 03:00:00 19.2 8 Nordeste 17 Nordeste 0 -- -- 20
2020-10-09 02:00:00 19.3 9 Nordeste 15 Nordeste 0 -- -- 25
2020-10-09 01:00:00 19.4 10 Nordeste 14 Nordeste 0 -- -- 26
2020-10-09 00:00:00 18.9 9 Norte 19 Norte 0 -- -- 35
2020-10-08 23:00:00 17.7 4 Nordeste 15 Norte 0 -- -- 45
2020-10-08 22:00:00 19.5 8 Noroeste 17 Norte 0 -- -- 26
2020-10-08 21:00:00 17.7 0 Calma 14 Nordeste 0 -- -- 64
2020-10-08 20:00:00 18.3 4 Nordeste 8 Norte 0 -- -- 69
2020-10-08 19:00:00 18.3 0 Calma 6 Noroeste 0 -- -- 77
2020-10-08 18:00:00 20.4 3 Nordeste 12 Nordeste 0 -- -- 66
2020-10-08 17:00:00 20.4 4 Este 13 Este 0 -- -- 62
2020-10-08 16:00:00 21.9 4 Este 11 Este 0 -- -- 58
2020-10-08 15:00:00 21.3 4 Nordeste 15 Este 0 -- -- 60
2020-10-08 14:00:00 21.1 5 Nordeste 13 Este 0 -- -- 52
2020-10-08 13:00:00 21 5 Este 13 Nordeste 0 -- -- 51
2020-10-08 12:00:00 22.2 5 Este 10 Este 0 -- -- 46
2020-10-08 11:00:00 22.1 3 Este 9 Este 0 -- -- 50
2020-10-08 10:00:00 19.1 2 Nordeste 7 Nordeste 0 -- -- 64
2020-10-08 09:00:00 18.1 0 Calma 5 Este 0 -- -- 65
2020-10-08 08:00:00 16.5 0 Calma 5 Oeste 0 -- -- 55
2020-10-08 07:00:00 18.8 4 Oeste 8 Oeste 0 -- -- 45
2020-10-08 06:00:00 19.2 5 Oeste 8 Sudoeste 0 -- -- 42
2020-10-08 05:00:00 17.9 2 Norte 7 Sudoeste 0 -- -- 52
2020-10-08 04:00:00 17.7 3 Sudoeste 6 Sudoeste 0 -- -- 63
2020-10-08 03:00:00 18.3 4 Sudoeste 8 Sudoeste 0 -- -- 59
2020-10-08 02:00:00 17.9 6 Sudoeste 9 Oeste 0 -- -- 66
2020-10-08 01:00:00 18.4 4 Oeste 10 Sudoeste 0 -- -- 63
2020-10-08 00:00:00 18.2 5 Sudoeste 14 Sudoeste 0 -- -- 66
2020-10-07 23:00:00 18.1 3 Oeste 6 Sudoeste 0 -- -- 66
2020-10-07 22:00:00 18.3 4 Oeste 7 Sudoeste 0 -- -- 68
2020-10-07 21:00:00 17.9 0 Calma 8 Oeste 0 -- -- 76
2020-10-07 20:00:00 17.9 0 Calma 9 Sudoeste 0 -- -- 79
2020-10-07 19:00:00 19 0 Calma 14 Sur 0 -- -- 79
2020-10-07 18:00:00 21.6 3 Este 10 Sudoeste 0 -- -- 68
2020-10-07 17:00:00 22.5 3 Este 12 Oeste 0 -- -- 64
2020-10-07 16:00:00 23.1 3 Este 14 Sur 0 -- -- 61
2020-10-07 15:00:00 22.6 7 Sudoeste 17 Sudoeste 0 -- -- 61
2020-10-07 14:00:00 22.7 4 Este 13 Nordeste 0 -- -- 61
2020-10-07 13:00:00 22.7 4 Este 10 Sudeste 0 -- -- 59
2020-10-07 12:00:00 21.5 3 Norte 10 Sudoeste 0 -- -- 63
2020-10-07 11:00:00 19.4 6 Sudoeste 10 Oeste 0 -- -- 72
2020-10-07 10:00:00 17.7 4 Sudoeste 6 Sudoeste 0 -- -- 83
2020-10-07 09:00:00 17 0 Calma 0 Calma 0 -- -- 87
2020-10-07 08:00:00 15.8 0 Calma 5 Oeste 0 -- -- 89
2020-10-07 07:00:00 16.2 2 Noroeste 10 Sudoeste 0 -- -- 81
2020-10-07 06:00:00 16.8 6 Oeste 15 Sudoeste 0 -- -- 80
2020-10-07 05:00:00 16.8 5 Oeste 11 Oeste 0 -- -- 82
2020-10-07 04:00:00 17 4 Oeste 17 Sudoeste 0 -- -- 76
2020-10-07 03:00:00 17.4 3 Oeste 8 Sudoeste 0 -- -- 70
2020-10-07 02:00:00 17.2 3 Sudoeste 9 Sur 0 -- -- 69
2020-10-07 01:00:00 17 2 Nordeste 10 Sudoeste 0 -- -- 73
2020-10-07 00:00:00 16.9 0 Calma 10 Sur 0 -- -- 74
2020-10-06 23:00:00 17.1 3 Este 9 Nordeste 0 -- -- 74
2020-10-06 22:00:00 17 6 Norte 12 Norte 0 -- -- 77
2020-10-06 21:00:00 16.8 2 Norte 12 Este 0 -- -- 81
2020-10-06 20:00:00 16.7 3 Sudeste 10 Sur 0 -- -- 83
2020-10-06 19:00:00 16.7 4 Sudoeste 13 Oeste 0 -- -- 89
2020-10-06 18:00:00 16.4 3 Oeste 16 Sudoeste 0 -- -- 88
2020-10-06 17:00:00 17.7 6 Sudoeste 13 Oeste 0.2 -- -- 92
2020-10-06 16:00:00 15.7 5 Noroeste 23 Nordeste 0 -- -- 96
2020-10-06 15:00:00 16.1 9 Nordeste 17 Nordeste 1 -- -- 91
2020-10-06 14:00:00 17.8 3 Nordeste 16 Nordeste 0 -- -- 77
2020-10-06 13:00:00 15.4 0 Calma 15 Sudoeste 0 -- -- 86
2020-10-06 12:00:00 15.9 10 Sudoeste 18 Sudoeste 0 -- -- 80
2020-10-06 11:00:00 18.1 2 Nordeste 6 Este 0 -- -- 79
2020-10-06 10:00:00 18 3 Este 8 Norte 0 -- -- 80
2020-10-06 09:00:00 16.7 4 Nordeste 12 Nordeste 0 -- -- 80
2020-10-06 08:00:00 16.1 4 Norte 10 Norte 0 -- -- 82
2020-10-06 07:00:00 15.2 5 Oeste 15 Sudoeste 0.2 -- -- 86
2020-10-06 06:00:00 15.5 10 Sudoeste 19 Sudoeste 0 -- -- 70
2020-10-06 05:00:00 15.9 8 Sudoeste 23 Sudoeste 0 -- -- 70
2020-10-06 04:00:00 16.5 14 Sudoeste 27 Sudoeste 0 -- -- 61
2020-10-06 03:00:00 16.9 11 Sudoeste 23 Sudoeste 0 -- -- 41
2020-10-06 02:00:00 16.1 9 Sudoeste 21 Sudoeste 0 -- -- 40
2020-10-06 01:00:00 16.2 5 Sudoeste 26 Sudoeste 0 -- -- 39
2020-10-06 00:00:00 17.4 18 Sudoeste 26 Sudoeste 0 -- -- 28
2020-10-05 23:00:00 17.9 12 Sudoeste 22 Sudoeste 0 -- -- 31
2020-10-05 22:00:00 17.7 10 Oeste 23 Oeste 0 -- -- 26
2020-10-05 21:00:00 17 10 Oeste 19 Noroeste 0 -- -- 29
2020-10-05 20:00:00 12.3 3 Sudoeste 9 Oeste 0 -- -- 92
2020-10-05 19:00:00 14.7 6 Sudoeste 15 Sudoeste 0 -- -- 98
2020-10-05 18:00:00 13.8 0 Calma 10 Norte 0 -- -- 100
2020-10-05 17:00:00 12 2 Nordeste 12 Nordeste 0 -- -- 99
2020-10-05 16:00:00 12.6 3 Nordeste 11 Norte 0 -- -- 99
2020-10-05 15:00:00 12.6 3 Nordeste 12 Nordeste 0 -- -- 99
2020-10-05 14:00:00 12.8 2 Nordeste 14 Nordeste 0 -- -- 98
2020-10-05 13:00:00 13.3 4 Nordeste 14 Nordeste 0 -- -- 97
2020-10-05 12:00:00 12.5 3 Nordeste 16 Norte 0 -- -- 96
2020-10-05 11:00:00 15.1 4 Nordeste 13 Nordeste 0 -- -- 84
2020-10-05 10:00:00 16.4 2 Nordeste 15 Nordeste 0 -- -- 66
2020-10-05 09:00:00 15.4 6 Nordeste 21 Norte 0 -- -- 37
2020-10-05 08:00:00 10.3 8 Nordeste 23 Nordeste 0.2 -- -- 100
2020-10-05 07:00:00 10.9 8 Nordeste 31 Nordeste 0 -- -- 100
2020-10-05 06:00:00 10.7 5 Nordeste 29 Nordeste 0.2 -- -- 100
2020-10-05 05:00:00 10.1 14 Nordeste 24 Nordeste 0 -- -- 99
2020-10-05 04:00:00 11.4 11 Nordeste 26 Norte 0 -- -- 76
2020-10-05 03:00:00 10.2 12 Nordeste 34 Nordeste 0.2 -- -- 100
2020-10-05 02:00:00 10.9 4 Nordeste 26 Nordeste 0.2 -- -- 100
2020-10-05 01:00:00 10.5 7 Nordeste 37 Nordeste 0.2 -- -- 100
2020-10-05 00:00:00 10.7 13 Nordeste 39 Nordeste 0.4 -- -- 100
2020-10-04 23:00:00 11.4 14 Nordeste 33 Nordeste 0.6 -- -- 100
2020-10-04 22:00:00 10.6 5 Nordeste 32 Nordeste 0.4 -- -- 100
2020-10-04 21:00:00 11 22 Nordeste 48 Nordeste 0 -- -- 100
2020-10-04 20:00:00 10 15 Nordeste 38 Nordeste 0 -- -- 100
2020-10-04 19:00:00 10.7 15 Nordeste 40 Nordeste 0 -- -- 100
2020-10-04 18:00:00 11.9 4 Nordeste 16 Nordeste 0 -- -- 99
2020-10-04 17:00:00 13.3 2 Nordeste 12 Este 0 -- -- 99
2020-10-04 16:00:00 15.1 4 Este 15 Nordeste 0 -- -- 99
2020-10-04 15:00:00 14.4 4 Este 22 Este 0 -- -- 100
2020-10-04 14:00:00 13.8 6 Nordeste 33 Este 0.2 -- -- 100
2020-10-04 13:00:00 14 11 Este 32 Nordeste 0 -- -- 100
2020-10-04 12:00:00 14 7 Nordeste 39 Este 0.6 -- -- 100
2020-10-04 11:00:00 13.9 19 Este 39 Este 0.4 -- -- 100
2020-10-04 10:00:00 12.9 18 Este 45 Este 0.2 -- -- 100
2020-10-04 09:00:00 11.7 16 Este 46 Este 0 -- -- 100
2020-10-04 08:00:00 11.8 12 Este 38 Este 0.2 -- -- 100
2020-10-04 07:00:00 13 18 Este 46 Este 0.2 -- -- 100
2020-10-04 06:00:00 13.1 17 Este 55 Este 0.4 -- -- 100
2020-10-04 05:00:00 13 16 Este 55 Este 0.4 -- -- 100
2020-10-04 04:00:00 12.6 22 Este 56 Este 0.6 -- -- 100
2020-10-04 03:00:00 12.5 26 Este 55 Este 0.4 -- -- 100
2020-10-04 02:00:00 12.6 21 Este 63 Este 0.2 -- -- 100
2020-10-04 01:00:00 12.1 18 Nordeste 51 Este 0 -- -- 100
2020-10-04 00:00:00 11.1 22 Este 51 Este 0 -- -- 100
2020-10-03 23:00:00 11.9 14 Este 39 Este 0.2 -- -- 100
2020-10-03 22:00:00 11.9 22 Este 44 Este 0 -- -- 100
2020-10-03 21:00:00 11.7 19 Este 39 Este 0 -- -- 100
2020-10-03 20:00:00 11.5 15 Este 45 Este 0 -- -- 100
2020-10-03 19:00:00 11.8 19 Este 42 Este 0.2 -- -- 100
2020-10-03 18:00:00 12.9 22 Este 46 Este 0.2 -- -- 100
2020-10-03 17:00:00 13 21 Este 46 Este 0.6 -- -- 100
2020-10-03 16:00:00 13.3 12 Este 38 Este 0.6 -- -- 100
2020-10-03 15:00:00 13.4 15 Este 46 Sudeste 0.2 -- -- 100
2020-10-03 14:00:00 13.3 18 Este 44 Este 0.4 -- -- 100
2020-10-03 13:00:00 13 18 Este 40 Nordeste 0.4 -- -- 100
2020-10-03 12:00:00 13.1 12 Este 28 Este 1.2 -- -- 100
2020-10-03 11:00:00 12.5 9 Nordeste 50 Este 0.6 -- -- 100
2020-10-03 10:00:00 11.2 26 Este 55 Este 0.8 -- -- 100
2020-10-03 09:00:00 11.4 10 Nordeste 25 Este 0.4 -- -- 100
2020-10-03 08:00:00 10.2 11 Nordeste 55 Este 0.2 -- -- 100
2020-10-03 07:00:00 10.8 17 Este 44 Este 0 -- -- 100
2020-10-03 06:00:00 10.2 20 Este 62 Este 0.4 -- -- 100
2020-10-03 05:00:00 10.9 20 Este 53 Este 0.6 -- -- 100
2020-10-03 04:00:00 10.8 19 Nordeste 56 Este 0.4 -- -- 100
2020-10-03 03:00:00 10.2 18 Este 51 Este 0.4 -- -- 100
2020-10-03 02:00:00 10.1 19 Este 63 Este 0.4 -- -- 100
2020-10-03 01:00:00 11 24 Este 64 Este 0.4 -- -- 100
2020-10-03 00:00:00 10.3 20 Este 63 Nordeste 0.8 -- -- 100
2020-10-02 23:00:00 11.3 19 Nordeste 55 Este 0.6 -- -- 100
2020-10-02 22:00:00 10.8 18 Nordeste 63 Este 0.4 -- -- 100
2020-10-02 21:00:00 11.1 29 Este 57 Este 0.4 -- -- 100
2020-10-02 20:00:00 11.8 22 Este 46 Nordeste 0.6 -- -- 100
2020-10-02 19:00:00 12.1 23 Este 48 Este 0.6 -- -- 100
2020-10-02 18:00:00 11.8 17 Este 50 Este 0.2 -- -- 100
2020-10-02 17:00:00 12.7 10 Nordeste 37 Este 0.2 -- -- 99
2020-10-02 16:00:00 12.4 11 Nordeste 44 Nordeste 0 -- -- 100
2020-10-02 15:00:00 11.3 16 Nordeste 44 Nordeste 0 -- -- 100
2020-10-02 14:00:00 11.5 15 Nordeste 42 Norte 0 -- -- 100
2020-10-02 13:00:00 11.1 14 Nordeste 45 Norte 0 -- -- 100
2020-10-02 12:00:00 10.3 27 Nordeste 62 Norte 0.2 -- -- 100
2020-10-02 11:00:00 9.7 21 Nordeste 60 Nordeste 1 -- -- 100
2020-10-02 10:00:00 9.5 26 Nordeste 58 Nordeste 1 -- -- 100
2020-10-02 09:00:00 10.3 27 Nordeste 57 Norte 0.8 -- -- 100
2020-10-02 08:00:00 9.6 24 Nordeste 50 Norte 0.4 -- -- 100
2020-10-02 07:00:00 10.2 19 Nordeste 46 Nordeste 0.4 -- -- 100
2020-10-02 06:00:00 10.5 21 Nordeste 50 Norte 0.6 -- -- 100
2020-10-02 05:00:00 10.5 15 Nordeste 50 Nordeste 1 -- -- 100
2020-10-02 04:00:00 10.7 26 Nordeste 43 Nordeste 0.4 -- -- 99
2020-10-02 03:00:00 10.3 18 Nordeste 42 Norte 0.4 -- -- 99
2020-10-02 02:00:00 10.4 23 Nordeste 48 Nordeste 0.4 -- -- 99
2020-10-02 01:00:00 10.4 26 Nordeste 47 Norte 0.4 -- -- 99
2020-10-02 00:00:00 11.1 14 Nordeste 43 Norte 0.4 -- -- 99
2020-10-01 23:00:00 11 10 Nordeste 40 Norte 0.2 -- -- 99
2020-10-01 22:00:00 10.4 8 Nordeste 36 Nordeste 0.2 -- -- 99
2020-10-01 21:00:00 10.4 14 Nordeste 38 Nordeste 0 -- -- 98
2020-10-01 20:00:00 11 8 Nordeste 32 Nordeste 0.2 -- -- 98
2020-10-01 19:00:00 11.6 4 Nordeste 19 Nordeste 0 -- -- 96
2020-10-01 18:00:00 12.3 2 Nordeste 15 Nordeste 0 -- -- 97
2020-10-01 17:00:00 14.1 5 Nordeste 15 Nordeste 0 -- -- 89
2020-10-01 16:00:00 15.8 4 Nordeste 15 Nordeste 0 -- -- 80
2020-10-01 15:00:00 16.2 5 Nordeste 15 Nordeste 0 -- -- 76
2020-10-01 14:00:00 15.6 5 Este 14 Este 0 -- -- 87
2020-10-01 13:00:00 12.7 3 Nordeste 11 Nordeste 0 -- -- 98
2020-10-01 12:00:00 12.7 3 Nordeste 15 Nordeste 0 -- -- 98
2020-10-01 11:00:00 11.9 2 Nordeste 13 Norte 0 -- -- 99
2020-10-01 10:00:00 11.5 2 Nordeste 14 Nordeste 0 -- -- 99
2020-10-01 09:00:00 10.6 5 Nordeste 21 Nordeste 0 -- -- 99
2020-10-01 08:00:00 10 4 Nordeste 21 Este 0 -- -- 99
2020-10-01 07:00:00 10 5 Este 19 Este 0 -- -- 99
2020-10-01 06:00:00 9 5 Nordeste 12 Norte 0 -- -- 99
2020-10-01 05:00:00 9 7 Nordeste 12 Nordeste 0 -- -- 98
2020-10-01 04:00:00 9.4 5 Nordeste 12 Nordeste 0 -- -- 97
2020-10-01 03:00:00 10.2 5 Nordeste 9 Norte 0 -- -- 98
2020-10-01 02:00:00 9.8 5 Nordeste 14 Nordeste 0 -- -- 98
2020-10-01 01:00:00 9.8 6 Nordeste 13 Nordeste 0 -- -- 99
2020-10-01 00:00:00 9.9 4 Nordeste 15 Norte 0 -- -- 98